Etusivu
METAR-TAF:

METAR-TAF

Lentoasemat :

Sandefjord, Norja

Leveyspiiri: 59-12N, Pituuspiiri: 010-16E, korkeus merenpinnasta: 8 m

Tämänhetkinen sää

Tämä raportti tehtiin 29 minuuttia sitten, kello 22.20 UTC
Tuuli 14 kn lounaasta
Lämpötila 5°C
Kosteus 81%
Ilmanpaine 1001 hPa
Näkyvyys 10 km tai enemmän

METAR: ENTO 172220Z AUTO 22014KT 9999 FEW080/// 05/02 Q1001

Aika: 23:49 (22:49 UTC)

Sääennuste

Ennuste voimassa 17. päivästä klo 18 UTC - 18. päivään klo 18 UTC
Tuuli 12 kn etelästä/lounaasta
Näkyvyys 10 km tai enemmän
Muutamia pilviä 4000 ft:n korkeudessa
Tulossa
18. päivästä klo 03 UTC - 18. päivään klo 06 UTC
Tuuli 8 kn lännestä

TAF: ENTO 1718/1818 20012KT 9999 FEW040 BECMG 1803/1806 26008KT

Säähavainnot ja -ennusteet yli 4000 lentoasemalta (METAR- ja TAF-raportit).

Käytössä olevat sääasemat on merkitty karttaan keltaisilla ja punaisilla pisteillä.

Aseta hiiri pisteen päälle nähdäksesi sääaseman nimen.

Klikkaa sitten nähdäksesi säähavainnot ja -ennusteet.

Kartan vaihtaminen: klikkaa mustalla rastilla varustettuja vihreitä pisteitä, niin voit zoomata sisään; viivalla varustettua vihreää pistettä, niin voit zoomata ulos tai vihreitä nuolia, niin pääset viereisille kartoille.


METAR-TAF: